createdAt,value
2018-04-17T00:00:25.372Z,1013.38
2018-04-17T00:01:25.354Z,1013.4
2018-04-17T00:02:25.335Z,1013.39
2018-04-17T00:03:25.321Z,1013.4
2018-04-17T00:04:25.306Z,1013.43
2018-04-17T00:05:25.286Z,1013.41
2018-04-17T00:06:25.269Z,1013.39
2018-04-17T00:07:25.253Z,1013.43
2018-04-17T00:08:25.237Z,1013.43
2018-04-17T00:09:25.219Z,1013.45
2018-04-17T00:10:25.202Z,1013.42
2018-04-17T00:11:25.185Z,1013.44
2018-04-17T00:12:25.168Z,1013.45
2018-04-17T00:13:25.151Z,1013.45
2018-04-17T00:14:25.135Z,1013.45
2018-04-17T00:15:25.117Z,1013.47
2018-04-17T00:16:25.101Z,1013.46
2018-04-17T00:17:25.083Z,1013.47
2018-04-17T00:18:25.065Z,1013.46
2018-04-17T00:19:25.050Z,1013.51
2018-04-17T00:20:25.037Z,1013.46
2018-04-17T00:21:25.015Z,1013.51
2018-04-17T00:22:24.999Z,1013.53
2018-04-17T00:23:24.981Z,1013.47
2018-04-17T00:24:24.967Z,1013.53
2018-04-17T00:25:24.946Z,1013.53
2018-04-17T00:26:24.940Z,1013.53
2018-04-17T00:27:24.913Z,1013.51
2018-04-17T00:28:24.894Z,1013.53
2018-04-17T00:29:24.893Z,1013.57
2018-04-17T00:30:24.862Z,1013.53
2018-04-17T00:31:24.845Z,1013.54
2018-04-17T00:32:24.864Z,1013.56
2018-04-17T00:33:25.012Z,1013.53
2018-04-17T00:34:24.794Z,1013.52
2018-04-17T00:35:24.777Z,1013.54
2018-04-17T00:36:24.763Z,1013.48
2018-04-17T00:37:24.743Z,1013.52
2018-04-17T00:38:24.727Z,1013.52
2018-04-17T00:39:24.707Z,1013.51
2018-04-17T00:40:24.690Z,1013.5
2018-04-17T00:41:24.674Z,1013.49
2018-04-17T00:42:24.657Z,1013.49
2018-04-17T00:43:24.640Z,1013.47
2018-04-17T00:44:24.622Z,1013.48
2018-04-17T00:45:24.605Z,1013.46
2018-04-17T00:46:24.590Z,1013.47
2018-04-17T00:47:24.571Z,1013.48
2018-04-17T00:48:24.555Z,1013.51
2018-04-17T00:49:24.540Z,1013.5
2018-04-17T00:50:24.523Z,1013.51
2018-04-17T00:51:24.504Z,1013.53
2018-04-17T00:52:24.492Z,1013.51
2018-04-17T00:53:24.470Z,1013.56
2018-04-17T00:54:24.453Z,1013.52
2018-04-17T00:55:24.436Z,1013.61
2018-04-17T00:56:24.418Z,1013.62
2018-04-17T00:57:24.401Z,1013.64
2018-04-17T00:58:24.386Z,1013.58
2018-04-17T00:59:24.366Z,1013.6
2018-04-17T01:00:24.350Z,1013.62
2018-04-17T01:01:24.341Z,1013.65
2018-04-17T01:02:24.314Z,1013.67
2018-04-17T01:03:24.299Z,1013.65
2018-04-17T01:04:24.280Z,1013.67
2018-04-17T01:05:24.263Z,1013.7
2018-04-17T01:06:24.248Z,1013.7
2018-04-17T01:07:24.230Z,1013.73
2018-04-17T01:08:24.215Z,1013.72
2018-04-17T01:09:24.197Z,1013.71
2018-04-17T01:10:24.175Z,1013.73
2018-04-17T01:11:24.160Z,1013.71
2018-04-17T01:12:24.147Z,1013.74
2018-04-17T01:13:24.125Z,1013.74
2018-04-17T01:14:24.107Z,1013.74
2018-04-17T01:15:24.093Z,1013.74
2018-04-17T01:16:24.075Z,1013.82
2018-04-17T01:17:24.056Z,1013.77
2018-04-17T01:18:24.044Z,1013.77
2018-04-17T01:19:24.021Z,1013.8
2018-04-17T01:20:24.003Z,1013.78
2018-04-17T01:21:23.990Z,1013.78
2018-04-17T01:22:23.971Z,1013.85
2018-04-17T01:23:23.955Z,1013.83
2018-04-17T01:24:23.934Z,1013.85
2018-04-17T01:25:23.918Z,1013.85
2018-04-17T01:26:23.901Z,1013.87
2018-04-17T01:27:23.883Z,1013.87
2018-04-17T01:28:23.865Z,1013.89
2018-04-17T01:29:23.848Z,1013.9
2018-04-17T01:30:23.832Z,1013.85
2018-04-17T01:31:23.812Z,1013.9
2018-04-17T01:32:23.796Z,1013.92
2018-04-17T01:33:23.782Z,1013.89
2018-04-17T01:34:23.762Z,1013.89
2018-04-17T01:35:23.744Z,1013.91
2018-04-17T01:36:23.725Z,1013.89
2018-04-17T01:37:23.705Z,1013.96
2018-04-17T01:38:23.690Z,1013.95
2018-04-17T01:39:23.676Z,1013.97
2018-04-17T01:40:23.655Z,1013.98
2018-04-17T01:41:23.642Z,1013.98
2018-04-17T01:42:23.618Z,1013.98
2018-04-17T01:43:23.601Z,1014.02
2018-04-17T01:44:23.583Z,1013.99
2018-04-17T01:45:23.566Z,1014.03
2018-04-17T01:46:23.549Z,1014.03
2018-04-17T01:47:23.532Z,1014.03
2018-04-17T01:48:23.513Z,1013.98
2018-04-17T01:49:23.498Z,1014.06
2018-04-17T01:50:23.479Z,1014.02
2018-04-17T01:51:23.462Z,1014.06
2018-04-17T01:52:23.443Z,1014.05
2018-04-17T01:53:23.427Z,1014.07
2018-04-17T01:54:23.412Z,1014.09
2018-04-17T01:55:23.390Z,1014.07
2018-04-17T01:56:23.378Z,1014.05
2018-04-17T01:57:23.358Z,1014.04
2018-04-17T01:58:23.342Z,1014.03
2018-04-17T01:59:23.322Z,1014.04
2018-04-17T02:00:23.306Z,1014.01
2018-04-17T02:01:23.295Z,1013.98
2018-04-17T02:02:23.270Z,1014.02
2018-04-17T02:03:23.259Z,1014.03
2018-04-17T02:04:23.237Z,1014.01
2018-04-17T02:05:23.215Z,1014.04
2018-04-17T02:06:23.198Z,1013.99
2018-04-17T02:07:23.182Z,1014.01
2018-04-17T02:08:23.163Z,1014.02
2018-04-17T02:09:23.145Z,1014.05
2018-04-17T02:10:23.134Z,1014.04
2018-04-17T02:11:23.159Z,1014.03
2018-04-17T02:12:23.092Z,1014.01
2018-04-17T02:13:23.074Z,1014.06
2018-04-17T02:14:23.068Z,1014.1
2018-04-17T02:15:23.038Z,1014.06
2018-04-17T02:16:23.022Z,1014.11
2018-04-17T02:17:23.003Z,1014.08
2018-04-17T02:18:22.986Z,1014.12
2018-04-17T02:19:22.967Z,1014.17
2018-04-17T02:20:22.948Z,1014.14
2018-04-17T02:21:22.930Z,1014.21
2018-04-17T02:22:22.915Z,1014.2
2018-04-17T02:23:22.901Z,1014.22
2018-04-17T02:24:22.877Z,1014.23
2018-04-17T02:25:22.862Z,1014.25
2018-04-17T02:26:22.842Z,1014.24
2018-04-17T02:27:22.829Z,1014.26
2018-04-17T02:28:22.812Z,1014.28
2018-04-17T02:29:22.789Z,1014.34
2018-04-17T02:30:22.772Z,1014.29
2018-04-17T02:31:22.757Z,1014.25
2018-04-17T02:32:22.737Z,1014.29
2018-04-17T02:33:22.920Z,1014.35
2018-04-17T02:34:22.700Z,1014.35
2018-04-17T02:35:22.681Z,1014.32
2018-04-17T02:36:22.667Z,1014.34
2018-04-17T02:37:22.647Z,1014.36
2018-04-17T02:38:22.632Z,1014.41
2018-04-17T02:39:22.609Z,1014.4
2018-04-17T02:40:22.605Z,1014.4
2018-04-17T02:41:22.575Z,1014.4
2018-04-17T02:42:22.556Z,1014.43
2018-04-17T02:43:22.537Z,1014.43
2018-04-17T02:44:22.519Z,1014.46
2018-04-17T02:45:22.502Z,1014.45
2018-04-17T02:46:22.484Z,1014.47
2018-04-17T02:47:22.467Z,1014.52
2018-04-17T02:48:22.451Z,1014.48
2018-04-17T02:49:22.438Z,1014.53
2018-04-17T02:50:22.411Z,1014.53
2018-04-17T02:51:22.393Z,1014.54
2018-04-17T02:52:22.373Z,1014.54
2018-04-17T02:53:22.355Z,1014.56
2018-04-17T02:54:22.339Z,1014.57
2018-04-17T02:55:22.323Z,1014.55
2018-04-17T02:56:22.303Z,1014.53
2018-04-17T02:57:22.284Z,1014.53
2018-04-17T02:58:22.267Z,1014.56
2018-04-17T02:59:22.247Z,1014.54
2018-04-17T03:00:22.229Z,1014.53
2018-04-17T03:01:22.215Z,1014.55
2018-04-17T03:02:22.194Z,1014.52
2018-04-17T03:03:22.177Z,1014.52
2018-04-17T03:04:22.156Z,1014.51
2018-04-17T03:05:22.143Z,1014.51
2018-04-17T03:06:22.120Z,1014.48
2018-04-17T03:07:22.102Z,1014.49
2018-04-17T03:08:22.082Z,1014.46
2018-04-17T03:09:22.064Z,1014.47
2018-04-17T03:10:22.054Z,1014.42
2018-04-17T03:11:22.027Z,1014.46
2018-04-17T03:12:22.011Z,1014.42
2018-04-17T03:13:21.993Z,1014.44
2018-04-17T03:14:21.974Z,1014.43
2018-04-17T03:15:21.957Z,1014.42
2018-04-17T03:16:21.935Z,1014.4
2018-04-17T03:17:21.920Z,1014.42
2018-04-17T03:18:21.903Z,1014.44
2018-04-17T03:19:21.883Z,1014.44
2018-04-17T03:20:21.865Z,1014.43
2018-04-17T03:21:21.844Z,1014.43
2018-04-17T03:22:21.827Z,1014.43
2018-04-17T03:23:21.809Z,1014.46
2018-04-17T03:24:21.790Z,1014.45
2018-04-17T03:25:21.772Z,1014.47
2018-04-17T03:26:21.757Z,1014.41
2018-04-17T03:27:21.737Z,1014.44
2018-04-17T03:28:21.720Z,1014.46
2018-04-17T03:29:21.701Z,1014.47
2018-04-17T03:30:21.684Z,1014.45
2018-04-17T03:31:21.665Z,1014.46
2018-04-17T03:32:21.644Z,1014.48
2018-04-17T03:33:21.628Z,1014.45
2018-04-17T03:34:21.613Z,1014.44
2018-04-17T03:35:21.590Z,1014.42
2018-04-17T03:36:21.570Z,1014.42
2018-04-17T03:37:21.557Z,1014.47
2018-04-17T03:38:21.534Z,1014.46
2018-04-17T03:39:21.517Z,1014.48
2018-04-17T03:40:21.496Z,1014.44
2018-04-17T03:41:21.478Z,1014.48
2018-04-17T03:42:21.467Z,1014.51
2018-04-17T03:43:21.448Z,1014.44
2018-04-17T03:44:21.422Z,1014.46
2018-04-17T03:45:21.403Z,1014.45
2018-04-17T03:46:21.387Z,1014.51
2018-04-17T03:47:21.374Z,1014.51
2018-04-17T03:48:21.351Z,1014.49
2018-04-17T03:49:21.333Z,1014.48
2018-04-17T03:50:21.311Z,1014.51
2018-04-17T03:51:21.293Z,1014.5
2018-04-17T03:52:21.293Z,1014.51
2018-04-17T03:53:21.262Z,1014.52
2018-04-17T03:54:21.237Z,1014.49
2018-04-17T03:55:21.218Z,1014.5
2018-04-17T03:56:21.201Z,1014.51
2018-04-17T03:57:21.185Z,1014.52
2018-04-17T03:58:21.163Z,1014.52
2018-04-17T03:59:21.144Z,1014.48
2018-04-17T04:00:21.127Z,1014.49
2018-04-17T04:01:21.107Z,1014.5
2018-04-17T04:02:21.091Z,1014.5
2018-04-17T04:03:21.070Z,1014.51
2018-04-17T04:04:21.052Z,1014.49
2018-04-17T04:05:21.032Z,1014.51
2018-04-17T04:06:21.013Z,1014.49
2018-04-17T04:07:21.003Z,1014.52
2018-04-17T04:08:20.979Z,1014.51
2018-04-17T04:09:20.960Z,1014.49
2018-04-17T04:10:20.940Z,1014.48
2018-04-17T04:11:20.922Z,1014.51
2018-04-17T04:12:20.903Z,1014.51
2018-04-17T04:13:20.886Z,1014.52
2018-04-17T04:14:20.882Z,1014.5
2018-04-17T04:15:20.850Z,1014.53
2018-04-17T04:16:20.831Z,1014.58
2018-04-17T04:17:20.813Z,1014.55
2018-04-17T04:18:20.798Z,1014.56
2018-04-17T04:19:20.773Z,1014.57
2018-04-17T04:20:20.756Z,1014.55
2018-04-17T04:21:20.736Z,1014.56
2018-04-17T04:22:20.719Z,1014.56
2018-04-17T04:23:20.698Z,1014.55
2018-04-17T04:24:20.682Z,1014.6
2018-04-17T04:25:20.661Z,1014.6
2018-04-17T04:26:20.643Z,1014.65
2018-04-17T04:27:20.623Z,1014.66
2018-04-17T04:28:20.608Z,1014.71
2018-04-17T04:29:20.586Z,1014.73
2018-04-17T04:30:20.575Z,1014.67
2018-04-17T04:31:20.551Z,1014.71
2018-04-17T04:32:20.533Z,1014.72
2018-04-17T04:33:20.513Z,1014.73
2018-04-17T04:34:20.498Z,1014.74
2018-04-17T04:35:20.477Z,1014.73
2018-04-17T04:36:20.457Z,1014.71
2018-04-17T04:37:20.447Z,1014.72
2018-04-17T04:38:20.422Z,1014.76
2018-04-17T04:39:20.402Z,1014.75
2018-04-17T04:40:20.384Z,1014.75
2018-04-17T04:41:20.364Z,1014.79
2018-04-17T04:42:20.351Z,1014.8
2018-04-17T04:43:20.327Z,1014.79
2018-04-17T04:44:20.311Z,1014.78
2018-04-17T04:45:20.291Z,1014.78
2018-04-17T04:46:20.272Z,1014.79
2018-04-17T04:47:20.252Z,1014.79
2018-04-17T04:48:20.236Z,1014.8
2018-04-17T04:49:20.218Z,1014.81
2018-04-17T04:50:20.198Z,1014.82
2018-04-17T04:51:20.181Z,1014.83
2018-04-17T04:52:20.160Z,1014.84
2018-04-17T04:53:20.140Z,1014.87
2018-04-17T04:54:20.123Z,1014.9
2018-04-17T04:55:20.106Z,1014.92
2018-04-17T04:56:20.087Z,1014.91
2018-04-17T04:57:20.070Z,1014.94
2018-04-17T04:58:20.049Z,1014.95
2018-04-17T04:59:20.034Z,1014.97
2018-04-17T05:00:20.015Z,1014.98
2018-04-17T05:01:19.993Z,1014.93
2018-04-17T05:02:19.974Z,1014.93
2018-04-17T05:03:19.956Z,1014.95
2018-04-17T05:04:19.938Z,1014.98
2018-04-17T05:05:19.919Z,1015
2018-04-17T05:06:19.900Z,1015.03
2018-04-17T05:07:19.883Z,1015.04
2018-04-17T05:08:19.863Z,1015.03
2018-04-17T05:09:19.850Z,1015.05
2018-04-17T05:10:19.827Z,1015.1
2018-04-17T05:11:19.814Z,1015.09
2018-04-17T05:12:19.793Z,1015.15
2018-04-17T05:13:19.769Z,1015.16
2018-04-17T05:14:19.751Z,1015.12
2018-04-17T05:15:19.735Z,1015.17
2018-04-17T05:16:19.716Z,1015.2
2018-04-17T05:17:19.697Z,1015.22
2018-04-17T05:18:19.678Z,1015.23
2018-04-17T05:19:19.661Z,1015.27
2018-04-17T05:20:19.644Z,1015.29
2018-04-17T05:21:19.625Z,1015.29
2018-04-17T05:22:19.610Z,1015.28
2018-04-17T05:23:19.588Z,1015.31
2018-04-17T05:24:19.569Z,1015.38
2018-04-17T05:25:19.551Z,1015.34
2018-04-17T05:26:19.542Z,1015.37
2018-04-17T05:27:19.515Z,1015.41
2018-04-17T05:28:19.497Z,1015.42
2018-04-17T05:29:19.478Z,1015.4
2018-04-17T05:30:19.459Z,1015.43
2018-04-17T05:31:19.442Z,1015.46
2018-04-17T05:32:19.429Z,1015.49
2018-04-17T05:33:19.404Z,1015.57
2018-04-17T05:34:19.388Z,1015.58
2018-04-17T05:35:19.368Z,1015.62
2018-04-17T05:36:19.350Z,1015.61
2018-04-17T05:37:19.331Z,1015.63
2018-04-17T05:38:19.313Z,1015.64
2018-04-17T05:39:19.296Z,1015.68
2018-04-17T05:40:19.279Z,1015.7
2018-04-17T05:41:19.258Z,1015.71
2018-04-17T05:42:19.245Z,1015.76
2018-04-17T05:43:19.228Z,1015.79
2018-04-17T05:44:19.206Z,1015.78
2018-04-17T05:45:19.194Z,1015.84
2018-04-17T05:46:19.174Z,1015.85
2018-04-17T05:47:19.149Z,1015.87
2018-04-17T05:48:19.133Z,1015.91
2018-04-17T05:49:19.116Z,1015.93
2018-04-17T05:50:19.099Z,1015.94
2018-04-17T05:51:19.079Z,1015.94
2018-04-17T05:52:19.067Z,1015.99
2018-04-17T05:53:19.047Z,1015.97
2018-04-17T05:54:19.026Z,1015.99
2018-04-17T05:55:19.009Z,1016.03
2018-04-17T05:56:18.992Z,1016.01
2018-04-17T05:57:18.977Z,1016.03
2018-04-17T05:58:18.957Z,1016.09
2018-04-17T05:59:18.941Z,1016.08
2018-04-17T06:00:18.930Z,1016.09
2018-04-17T06:01:18.905Z,1016.11
2018-04-17T06:02:18.885Z,1016.07
2018-04-17T06:03:18.868Z,1016.1
2018-04-17T06:04:18.848Z,1016.1
2018-04-17T06:05:18.834Z,1016.14
2018-04-17T06:06:18.815Z,1016.22
2018-04-17T06:07:18.800Z,1016.21
2018-04-17T06:08:18.782Z,1016.21
2018-04-17T06:09:18.767Z,1016.19
2018-04-17T06:10:18.747Z,1016.23
2018-04-17T06:11:18.733Z,1016.21
2018-04-17T06:12:18.713Z,1016.23
2018-04-17T06:13:18.694Z,1016.25
2018-04-17T06:14:18.683Z,1016.26
2018-04-17T06:15:18.660Z,1016.25
2018-04-17T06:16:18.641Z,1016.25
2018-04-17T06:17:18.629Z,1016.3
2018-04-17T06:18:18.609Z,1016.27
2018-04-17T06:19:18.592Z,1016.31
2018-04-17T06:20:18.575Z,1016.3
2018-04-17T06:21:18.562Z,1016.27
2018-04-17T06:22:18.541Z,1016.28
2018-04-17T06:23:18.544Z,1016.27
2018-04-17T06:24:18.506Z,1016.3
2018-04-17T06:25:18.490Z,1016.3
2018-04-17T06:26:18.471Z,1016.29
2018-04-17T06:27:18.456Z,1016.27
2018-04-17T06:28:18.438Z,1016.31
2018-04-17T06:29:18.424Z,1016.3
2018-04-17T06:30:18.405Z,1016.3
2018-04-17T06:31:18.387Z,1016.31
2018-04-17T06:32:18.370Z,1016.31
2018-04-17T06:33:18.355Z,1016.29
2018-04-17T06:34:18.540Z,1016.33
2018-04-17T06:35:18.319Z,1016.31
2018-04-17T06:36:18.304Z,1016.31
2018-04-17T06:37:18.293Z,1016.31
2018-04-17T06:38:18.270Z,1016.34
2018-04-17T06:39:18.261Z,1016.32
2018-04-17T06:40:18.242Z,1016.31
2018-04-17T06:41:18.223Z,1016.33
2018-04-17T06:42:18.205Z,1016.32
2018-04-17T06:43:18.188Z,1016.29
2018-04-17T06:44:18.172Z,1016.28
2018-04-17T06:45:18.157Z,1016.31
2018-04-17T06:46:18.141Z,1016.36
2018-04-17T06:47:18.208Z,1016.32
2018-04-17T06:48:18.109Z,1016.35
2018-04-17T06:49:18.093Z,1016.42
2018-04-17T06:50:18.077Z,1016.38
2018-04-17T06:51:18.059Z,1016.37
2018-04-17T06:52:18.049Z,1016.37
2018-04-17T06:53:18.026Z,1016.42
2018-04-17T06:54:18.012Z,1016.36
2018-04-17T06:55:17.995Z,1016.4
2018-04-17T06:56:17.986Z,1016.4
2018-04-17T06:57:17.964Z,1016.38
2018-04-17T06:58:17.953Z,1016.4
2018-04-17T06:59:17.938Z,1016.44
2018-04-17T07:00:17.915Z,1016.47
2018-04-17T07:01:17.899Z,1016.46
2018-04-17T07:02:17.884Z,1016.52
2018-04-17T07:03:17.871Z,1016.52
2018-04-17T07:04:17.855Z,1016.52
2018-04-17T07:05:17.902Z,1016.56
2018-04-17T07:06:17.823Z,1016.59
2018-04-17T07:07:17.807Z,1016.58
2018-04-17T07:08:17.793Z,1016.59
2018-04-17T07:09:17.774Z,1016.57
2018-04-17T07:10:17.762Z,1016.6
2018-04-17T07:11:17.744Z,1016.57
2018-04-17T07:12:17.728Z,1016.6
2018-04-17T07:13:17.717Z,1016.56
2018-04-17T07:14:17.699Z,1016.56
2018-04-17T07:15:17.685Z,1016.59
2018-04-17T07:16:17.669Z,1016.59
2018-04-17T07:17:17.657Z,1016.59
2018-04-17T07:18:17.637Z,1016.62
2018-04-17T07:19:17.625Z,1016.67
2018-04-17T07:20:17.611Z,1016.65
2018-04-17T07:21:17.599Z,1016.67
2018-04-17T07:22:17.577Z,1016.64
2018-04-17T07:23:17.564Z,1016.68
2018-04-17T07:24:17.548Z,1016.64
2018-04-17T07:25:17.532Z,1016.68
2018-04-17T07:26:17.518Z,1016.69
2018-04-17T07:27:17.507Z,1016.7
2018-04-17T07:28:17.491Z,1016.71
2018-04-17T07:29:17.473Z,1016.7
2018-04-17T07:30:17.464Z,1016.77
2018-04-17T07:31:17.444Z,1016.74
2018-04-17T07:32:17.429Z,1016.74
2018-04-17T07:33:17.414Z,1016.75
2018-04-17T07:34:17.400Z,1016.75
2018-04-17T07:35:17.386Z,1016.76
2018-04-17T07:36:17.376Z,1016.77
2018-04-17T07:37:17.360Z,1016.78
2018-04-17T07:38:17.344Z,1016.79
2018-04-17T07:39:17.330Z,1016.86
2018-04-17T07:40:17.315Z,1016.83
2018-04-17T07:41:17.305Z,1016.85
2018-04-17T07:42:17.287Z,1016.86
2018-04-17T07:43:17.276Z,1016.91
2018-04-17T07:44:17.258Z,1016.92
2018-04-17T07:45:17.246Z,1016.89
2018-04-17T07:46:17.235Z,1016.93
2018-04-17T07:47:17.222Z,1016.93
2018-04-17T07:48:17.205Z,1016.9
2018-04-17T07:49:17.195Z,1016.88
2018-04-17T07:50:17.177Z,1016.85
2018-04-17T07:51:17.163Z,1016.89
2018-04-17T07:52:17.149Z,1016.89
2018-04-17T07:53:17.136Z,1016.91
2018-04-17T07:54:17.126Z,1016.89
2018-04-17T07:55:17.108Z,1016.93
2018-04-17T07:56:17.097Z,1016.9
2018-04-17T07:57:17.081Z,1016.94
2018-04-17T07:58:17.069Z,1016.95
2018-04-17T07:59:17.054Z,1016.94
2018-04-17T08:00:17.041Z,1016.96
2018-04-17T08:01:17.031Z,1016.99
2018-04-17T08:02:17.018Z,1017.01
2018-04-17T08:03:17.000Z,1017.06
2018-04-17T08:04:16.989Z,1017.07
2018-04-17T08:05:16.976Z,1017.04
2018-04-17T08:06:16.961Z,1017.08
2018-04-17T08:07:16.954Z,1017.13
2018-04-17T08:08:16.998Z,1017.14
2018-04-17T08:09:16.926Z,1017.17
2018-04-17T08:10:16.910Z,1017.21
2018-04-17T08:11:16.896Z,1017.4
2018-04-17T08:12:16.883Z,1017.42
2018-04-17T08:13:16.873Z,1017.44
2018-04-17T08:14:16.858Z,1017.49
2018-04-17T08:15:16.848Z,1017.49
2018-04-17T08:16:16.837Z,1017.47
2018-04-17T08:17:16.827Z,1017.45
2018-04-17T08:18:16.816Z,1017.5
2018-04-17T08:19:16.806Z,1017.45
2018-04-17T08:20:16.795Z,1017.4
2018-04-17T08:21:16.784Z,1017.43
2018-04-17T08:22:16.778Z,1017.48
2018-04-17T08:23:16.767Z,1017.48
2018-04-17T08:24:16.761Z,1017.44
2018-04-17T08:25:16.752Z,1017.44
2018-04-17T08:26:16.747Z,1017.44
2018-04-17T08:27:16.735Z,1017.5
2018-04-17T08:28:16.730Z,1017.55
2018-04-17T08:29:16.723Z,1017.59
2018-04-17T08:30:16.720Z,1017.51
2018-04-17T08:31:16.707Z,1017.49
2018-04-17T08:32:16.703Z,1017.44
2018-04-17T08:33:16.697Z,1017.44
2018-04-17T08:34:16.887Z,1017.49
2018-04-17T08:35:16.680Z,1017.52
2018-04-17T08:36:16.675Z,1017.45
2018-04-17T08:37:16.669Z,1017.52
2018-04-17T08:38:16.663Z,1017.49
2018-04-17T08:39:16.656Z,1017.51
2018-04-17T08:40:16.653Z,1017.56
2018-04-17T08:41:16.648Z,1017.6
2018-04-17T08:42:16.642Z,1017.68
2018-04-17T08:43:16.637Z,1017.67
2018-04-17T08:44:16.635Z,1017.66
2018-04-17T08:45:16.632Z,1017.6
2018-04-17T08:46:16.623Z,1017.54
2018-04-17T08:47:16.621Z,1017.55
2018-04-17T08:48:16.615Z,1017.59
2018-04-17T08:49:16.611Z,1017.56
2018-04-17T08:50:16.604Z,1017.56
2018-04-17T08:51:16.602Z,1017.51
2018-04-17T08:52:16.596Z,1017.48
2018-04-17T08:53:16.595Z,1017.47
2018-04-17T08:54:16.592Z,1017.46
2018-04-17T08:55:16.585Z,1017.46
2018-04-17T08:56:16.580Z,1017.48
2018-04-17T08:57:16.581Z,1017.47
2018-04-17T08:58:16.573Z,1017.52
2018-04-17T08:59:16.572Z,1017.5
2018-04-17T09:00:16.566Z,1017.54
2018-04-17T09:01:16.560Z,1017.56
2018-04-17T09:02:16.567Z,1017.56
2018-04-17T09:03:16.559Z,1017.65
2018-04-17T09:04:16.549Z,1017.68
2018-04-17T09:05:16.628Z,1017.63
2018-04-17T09:06:16.543Z,1017.61
2018-04-17T09:07:16.538Z,1017.55
2018-04-17T09:08:16.534Z,1017.58
2018-04-17T09:09:16.529Z,1017.59
2018-04-17T09:10:16.532Z,1017.63
2018-04-17T09:11:16.524Z,1017.6
2018-04-17T09:12:16.519Z,1017.54
2018-04-17T09:13:16.519Z,1017.47
2018-04-17T09:14:16.519Z,1017.47
2018-04-17T09:15:16.510Z,1017.48
2018-04-17T09:16:16.508Z,1017.46
2018-04-17T09:17:16.508Z,1017.44
2018-04-17T09:18:16.502Z,1017.55
2018-04-17T09:19:16.498Z,1017.59
2018-04-17T09:20:16.495Z,1017.6
2018-04-17T09:21:16.493Z,1017.6
2018-04-17T09:22:16.489Z,1017.52
2018-04-17T09:23:16.483Z,1017.53
2018-04-17T09:24:16.480Z,1017.51
2018-04-17T09:25:16.481Z,1017.56
2018-04-17T09:26:16.478Z,1017.68
2018-04-17T09:27:16.468Z,1017.65
2018-04-17T09:28:16.465Z,1017.61
2018-04-17T09:29:16.473Z,1017.57
2018-04-17T09:30:16.460Z,1017.56
2018-04-17T09:31:16.457Z,1017.58
2018-04-17T09:32:16.454Z,1017.54
2018-04-17T09:33:16.458Z,1017.58
2018-04-17T09:34:16.454Z,1017.55
2018-04-17T09:35:16.445Z,1017.51
2018-04-17T09:36:16.445Z,1017.5
2018-04-17T09:37:16.441Z,1017.47
2018-04-17T09:38:16.446Z,1017.41
2018-04-17T09:39:16.436Z,1017.42
2018-04-17T09:40:16.433Z,1017.31
2018-04-17T09:41:16.434Z,1017.31
2018-04-17T09:42:16.428Z,1017.31
2018-04-17T09:43:16.425Z,1017.31
2018-04-17T09:44:16.423Z,1017.34
2018-04-17T09:45:16.419Z,1017.36
2018-04-17T09:46:16.427Z,1017.4
2018-04-17T09:47:16.412Z,1017.35
2018-04-17T09:48:16.409Z,1017.31
2018-04-17T09:49:16.406Z,1017.3
2018-04-17T09:50:16.400Z,1017.31
2018-04-17T09:51:16.398Z,1017.28
2018-04-17T09:52:16.408Z,1017.32
2018-04-17T09:53:16.391Z,1017.31
2018-04-17T09:54:16.387Z,1017.31
2018-04-17T09:55:16.395Z,1017.36
2018-04-17T09:56:16.377Z,1017.46
2018-04-17T09:57:16.373Z,1017.37
2018-04-17T09:58:16.372Z,1017.38
2018-04-17T09:59:16.367Z,1017.38
2018-04-17T10:00:16.362Z,1017.37
2018-04-17T10:01:16.358Z,1017.29
2018-04-17T10:02:16.355Z,1017.29
2018-04-17T10:03:16.350Z,1017.33
2018-04-17T10:04:16.348Z,1017.37
2018-04-17T10:05:16.343Z,1017.36
2018-04-17T10:06:16.338Z,1017.31
2018-04-17T10:07:16.334Z,1017.28
2018-04-17T10:08:16.330Z,1017.36
2018-04-17T10:09:16.326Z,1017.38
2018-04-17T10:10:16.322Z,1017.35
2018-04-17T10:11:16.321Z,1017.29
2018-04-17T10:12:16.311Z,1017.37
2018-04-17T10:13:16.309Z,1017.33
2018-04-17T10:14:16.307Z,1017.34
2018-04-17T10:15:16.298Z,1017.36
2018-04-17T10:16:16.301Z,1017.31
2018-04-17T10:17:16.298Z,1017.35
2018-04-17T10:18:16.286Z,1017.34
2018-04-17T10:19:16.283Z,1017.39
2018-04-17T10:20:16.278Z,1017.38
2018-04-17T10:21:16.274Z,1017.36
2018-04-17T10:22:16.270Z,1017.31
2018-04-17T10:23:16.270Z,1017.38
2018-04-17T10:24:16.267Z,1017.34
2018-04-17T10:25:16.258Z,1017.28
2018-04-17T10:26:16.256Z,1017.27
2018-04-17T10:27:16.251Z,1017.25
2018-04-17T10:28:16.248Z,1017.25
2018-04-17T10:29:16.242Z,1017.25
2018-04-17T10:30:16.241Z,1017.26
2018-04-17T10:31:16.241Z,1017.3
2018-04-17T10:32:16.232Z,1017.27
2018-04-17T10:33:16.232Z,1017.3
2018-04-17T10:34:16.432Z,1017.25
2018-04-17T10:35:16.229Z,1017.24
2018-04-17T10:36:16.218Z,1017.26
2018-04-17T10:37:16.213Z,1017.21
2018-04-17T10:38:16.215Z,1017.24
2018-04-17T10:39:16.210Z,1017.24
2018-04-17T10:40:16.205Z,1017.25
2018-04-17T10:41:16.204Z,1017.27
2018-04-17T10:42:16.202Z,1017.26
2018-04-17T10:43:16.197Z,1017.24
2018-04-17T10:44:16.200Z,1017.32
2018-04-17T10:45:16.190Z,1017.31
2018-04-17T10:46:16.186Z,1017.31
2018-04-17T10:47:16.186Z,1017.32
2018-04-17T10:48:16.195Z,1017.3
2018-04-17T10:49:16.183Z,1017.27
2018-04-17T10:50:16.183Z,1017.3
2018-04-17T10:51:16.177Z,1017.28
2018-04-17T10:52:16.175Z,1017.24
2018-04-17T10:53:16.173Z,1017.29
2018-04-17T10:54:16.168Z,1017.26
2018-04-17T10:55:16.168Z,1017.22
2018-04-17T10:56:16.163Z,1017.24
2018-04-17T10:57:16.165Z,1017.28
2018-04-17T10:58:16.160Z,1017.23
2018-04-17T10:59:16.157Z,1017.27
2018-04-17T11:00:16.160Z,1017.22
2018-04-17T11:01:16.160Z,1017.23
2018-04-17T11:02:16.156Z,1017.21
2018-04-17T11:03:16.189Z,1017.18
2018-04-17T11:04:16.155Z,1017.13
2018-04-17T11:05:16.153Z,1017.08
2018-04-17T11:06:16.152Z,1017.06
2018-04-17T11:07:16.149Z,1017.01
2018-04-17T11:08:16.152Z,1016.99
2018-04-17T11:09:16.152Z,1017.05
2018-04-17T11:10:16.155Z,1017.02
2018-04-17T11:11:16.154Z,1016.98
2018-04-17T11:12:16.161Z,1017.13
2018-04-17T11:13:16.158Z,1017.28
2018-04-17T11:14:16.159Z,1017.27
2018-04-17T11:15:16.162Z,1017.25
2018-04-17T11:16:16.168Z,1017.26
2018-04-17T11:17:16.165Z,1017.2
2018-04-17T11:18:16.211Z,1017.18
2018-04-17T11:19:16.172Z,1017.14
2018-04-17T11:20:16.176Z,1017.17
2018-04-17T11:21:16.177Z,1017.17
2018-04-17T11:22:16.180Z,1017.15
2018-04-17T11:23:16.254Z,1017.19
2018-04-17T11:24:16.185Z,1017.19
2018-04-17T11:25:16.235Z,1017.18
2018-04-17T11:26:16.200Z,1017.21
2018-04-17T11:27:16.203Z,1017.22
2018-04-17T11:28:16.202Z,1017.24
2018-04-17T11:29:16.208Z,1017.21
2018-04-17T11:30:16.210Z,1017.3
2018-04-17T11:31:16.215Z,1017.31
2018-04-17T11:32:16.225Z,1017.26
2018-04-17T11:33:16.224Z,1017.27
2018-04-17T11:34:16.233Z,1017.24
2018-04-17T11:35:16.233Z,1017.24
2018-04-17T11:36:16.238Z,1017.27
2018-04-17T11:37:16.244Z,1017.2
2018-04-17T11:38:16.247Z,1017.24
2018-04-17T11:39:16.266Z,1017.21
2018-04-17T11:40:16.260Z,1017.19
2018-04-17T11:41:16.261Z,1017.22
2018-04-17T11:42:16.265Z,1017.22
2018-04-17T11:43:16.274Z,1017.17
2018-04-17T11:44:16.277Z,1017.15
2018-04-17T11:45:16.282Z,1017.17
2018-04-17T11:46:16.287Z,1017.27
2018-04-17T11:47:16.292Z,1017.29
2018-04-17T11:48:16.299Z,1017.27
2018-04-17T11:49:16.304Z,1017.25
2018-04-17T11:50:16.313Z,1017.16
2018-04-17T11:51:16.314Z,1017.21
2018-04-17T11:52:16.320Z,1017.2
2018-04-17T11:53:16.324Z,1017.2
2018-04-17T11:54:16.330Z,1017.18
2018-04-17T11:55:16.340Z,1017.18
2018-04-17T11:56:16.341Z,1017.19
2018-04-17T11:57:16.349Z,1017.14
2018-04-17T11:58:16.353Z,1017.14
2018-04-17T11:59:16.361Z,1017.08
2018-04-17T12:00:16.365Z,1017.12
2018-04-17T12:01:16.370Z,1017.13
2018-04-17T12:02:16.377Z,1017.1
2018-04-17T12:03:16.384Z,1017.18
2018-04-17T12:04:16.390Z,1017.1
2018-04-17T12:05:16.475Z,1017.13
2018-04-17T12:06:16.405Z,1017.15
2018-04-17T12:07:16.407Z,1017.16
2018-04-17T12:08:16.414Z,1017.17